Latest Weather Observations for Flinders Island Airport

IDT60801

Issued at 7:35 pm EST Sunday 21 September 2014 (issued every 30 minutes, with the page automatically refreshed every 10 minutes)

About weather observations | Map of weather stations | Latest weather observations for TAS | Other Formats
Station Details ID: 099005 Name: FLINDERS ISLAND AIRPORT Lat: -40.09 Lon: 148.00 Height: 9.0 m
Data from the previous 72 hours. | See also: Recent months at Flinders Island Airport
Date/Time
EST
Temp
°C
App
Temp
°C
Dew
Point
Rel
Hum
%
Delta-T
°C
Wind Press
QNH
hPa
Press
MSL
hPa
Rain
since 9 am
mm
Dir
 
Spd
km/h
Gust
km/h
Spd
kts
Gust
kts
21/07:30pm 7.7 5.4 5.8 88 0.8 NNW 7 9 4 5 1029.1 1029.1 0.0
21/07:00pm 10.4 8.3 8.3 87 1.0 NW 9 11 5 6 1028.9 1028.9 0.0
21/06:30pm 11.2 8.9 8.9 86 1.1 W 11 17 6 9 1028.8 1028.8 0.0
21/06:00pm 12.6 9.8 10.0 84 1.3 W 15 20 8 11 1028.6 1028.6 0.0
21/05:30pm 13.3 10.2 10.3 82 1.6 W 17 20 9 11 1028.4 1028.4 0.0
21/05:00pm 13.7 10.3 10.5 81 1.7 W 19 24 10 13 1028.2 1028.2 0.0
21/04:30pm 13.7 10.7 10.5 81 1.7 WSW 17 20 9 11 1028.3 1028.3 0.0
21/04:00pm 13.9 10.9 10.5 80 1.8 WSW 17 20 9 11 1028.2 1028.2 0.0
21/03:30pm 14.2 10.6 10.4 78 2.0 WSW 20 28 11 15 1028.0 1028.0 0.0
21/03:00pm 14.2 10.1 10.0 76 2.2 WSW 22 28 12 15 1028.0 1028.0 0.0
21/02:58pm 14.4 10.3 10.2 76 2.2 WSW 22 28 12 15 1028.0 1028.0 0.0
21/02:30pm 14.4 9.9 10.2 76 2.2 WSW 24 28 13 15 1028.0 1028.0 0.0
21/02:00pm 14.4 9.8 9.6 73 2.5 WSW 24 30 13 16 1028.0 1028.0 0.0
21/01:30pm 14.3 9.6 9.1 71 2.6 WSW 24 28 13 15 1028.1 1028.1 0.0
21/01:00pm 14.5 9.4 9.3 71 2.6 WSW 26 32 14 17 1028.1 1028.1 0.0
21/12:30pm 14.1 9.3 8.7 70 2.7 WSW 24 28 13 15 1028.2 1028.2 0.0
21/12:00pm 14.0 9.5 8.6 70 2.7 WSW 22 26 12 14 1028.5 1028.5 0.0
21/11:30am 14.4 9.9 8.4 67 3.0 WSW 22 28 12 15 1028.6 1028.6 0.0
21/11:00am 14.1 8.8 8.3 68 2.9 WSW 26 30 14 16 1028.6 1028.6 0.0
21/10:30am 14.3 9.5 8.9 70 2.7 WSW 24 30 13 16 1028.6 1028.6 0.0
21/10:00am 13.8 9.7 8.6 71 2.6 WSW 20 26 11 14 1028.6 1028.6 0.0
21/09:30am 13.3 9.2 8.0 70 2.6 WSW 19 24 10 13 1028.7 1028.7 0.0
21/09:00am 13.3 9.2 7.7 69 2.7 WSW 19 24 10 13 1028.7 1028.7 0.0
21/08:30am 13.2 9.1 7.9 70 2.6 WSW 19 22 10 12 1028.6 1028.6 0.0
21/08:00am 12.6 8.2 7.5 71 2.5 SW 20 26 11 14 1028.7 1028.7 0.0
21/07:30am 12.2 8.0 7.5 73 2.3 WSW 19 22 10 12 1028.2 1028.2 0.0
21/07:00am 11.7 7.4 6.8 72 2.3 SW 19 22 10 12 1028.0 1028.0 0.0
21/06:30am 11.2 6.6 6.5 73 2.2 SW 20 26 11 14 1027.8 1027.8 0.0
21/06:00am 10.9 5.6 6.6 75 2.0 SW 24 30 13 16 1027.4 1027.4 0.0
21/05:30am 10.9 6.0 6.8 76 1.9 SW 22 28 12 15 1027.1 1027.1 0.0
21/05:00am 10.6 6.6 6.7 77 1.8 SW 17 22 9 12 1026.7 1026.7 0.0
21/04:30am 10.1 6.1 6.8 80 1.6 SW 17 26 9 14 1026.6 1026.6 0.0
21/04:00am 10.7 7.5 7.0 78 1.7 SSW 13 17 7 9 1026.1 1026.1 0.0
21/03:30am 11.0 6.6 7.3 78 1.8 SW 20 28 11 15 1026.2 1026.2 0.0
21/03:00am 11.2 5.7 7.5 78 1.8 SW 26 32 14 17 1026.2 1026.2 0.0
21/02:30am 11.1 5.2 7.6 79 1.7 SW 28 35 15 19 1026.1 1026.1 0.0
21/02:00am 11.3 5.2 8.2 81 1.5 WSW 30 35 16 19 1026.2 1026.2 0.0
21/01:30am 11.5 5.0 8.2 80 1.6 WSW 32 37 17 20 1026.3 1026.3 0.0
21/01:00am 11.4 6.0 7.9 79 1.7 WSW 26 32 14 17 1026.4 1026.4 0.0
21/12:30am 11.4 5.2 7.9 79 1.7 WSW 30 33 16 18 1026.2 1026.2 0.0
21/12:00am 11.5 5.0 8.0 79 1.7 WSW 32 37 17 20 1026.3 1026.3 0.0
 
Date/Time
EST
Temp
°C
App
Temp
°C
Dew
Point
Rel
Hum
%
Delta-T
°C
Wind Press
QNH
hPa
Press
MSL
hPa
Rain
since 9 am
mm
Dir
 
Spd
km/h
Gust
km/h
Spd
kts
Gust
kts
20/11:30pm 11.7 5.3 8.7 82 1.5 WSW 32 39 17 21 1026.3 1026.3 0.0
20/11:00pm 11.6 6.4 8.8 83 1.4 W 26 35 14 19 1026.3 1026.3 0.0
20/10:30pm 11.3 6.5 8.9 85 1.2 W 24 30 13 16 1026.3 1026.3 0.0
20/10:00pm 10.4 7.0 7.8 84 1.2 WNW 15 19 8 10 1026.0 1026.0 0.0
20/09:30pm 10.7 7.4 7.9 83 1.4 WNW 15 19 8 10 1026.4 1026.4 0.0
20/09:00pm 11.3 7.3 8.2 81 1.5 WNW 19 26 10 14 1026.2 1026.2 0.0
20/08:30pm 11.7 7.5 8.4 80 1.6 W 20 26 11 14 1026.4 1026.4 0.0
20/08:00pm 11.8 7.7 8.5 80 1.6 WNW 20 26 11 14 1026.2 1026.2 0.0
20/07:30pm 11.8 8.2 8.5 80 1.6 WNW 17 20 9 11 1026.0 1026.0 0.0
20/07:00pm 11.9 7.7 8.4 79 1.7 W 20 26 11 14 1025.9 1025.9 0.0
20/06:30pm 12.1 8.0 8.8 80 1.6 W 20 30 11 16 1025.6 1025.6 0.0
20/06:00pm 12.5 7.3 8.8 78 1.8 W 26 32 14 17 1025.2 1025.2 0.0
20/05:30pm 13.2 8.5 9.3 77 2.0 W 24 30 13 16 1025.1 1025.1 0.0
20/05:00pm 13.6 8.5 9.1 74 2.3 W 26 30 14 16 1024.8 1024.8 0.0
20/04:30pm 14.0 9.1 9.8 76 2.2 W 26 30 14 16 1024.9 1024.9 0.0
20/04:00pm 13.9 8.9 9.5 75 2.2 WSW 26 30 14 16 1024.6 1024.6 0.0
20/03:30pm 14.0 9.0 9.6 75 2.3 WSW 26 30 14 16 1024.5 1024.5 0.0
20/03:00pm 14.2 9.7 10.0 76 2.2 W 24 28 13 15 1024.4 1024.4 0.0
20/02:30pm 14.2 10.0 9.6 74 2.4 WSW 22 26 12 14 1024.3 1024.3 0.0
20/02:00pm 14.6 10.9 10.0 74 2.4 WSW 20 26 11 14 1024.4 1024.4 0.0
20/01:30pm 14.2 10.9 9.6 74 2.4 WSW 17 20 9 11 1024.2 1024.2 0.0
20/01:00pm 13.8 11.7 9.6 76 2.1 WSW 11 15 6 8 1024.4 1024.4 0.0
20/12:30pm 14.1 11.7 10.1 77 2.1 WSW 13 17 7 9 1024.5 1024.5 0.0
20/12:00pm 14.1 11.4 10.3 78 2.0 WSW 15 19 8 10 1024.6 1024.6 0.0
20/11:30am 14.0 10.9 10.2 78 2.0 WSW 17 19 9 10 1024.7 1024.7 0.0
20/11:00am 14.1 11.4 10.3 78 2.0 WSW 15 19 8 10 1024.8 1024.8 0.0
20/10:30am 13.9 11.1 10.1 78 2.0 WSW 15 19 8 10 1024.9 1024.9 0.0
20/10:00am 14.2 11.6 10.6 79 1.9 SW 15 19 8 10 1024.8 1024.8 0.0
20/09:30am 13.8 11.1 10.2 79 1.9 SW 15 19 8 10 1024.8 1024.8 0.0
20/09:00am 13.5 9.9 9.9 79 1.8 SW 19 22 10 12 1024.5 1024.5 0.0
20/08:30am 13.5 9.8 10.1 80 1.8 SW 20 26 11 14 1024.2 1024.2 0.0
20/08:00am 12.8 9.6 10.0 83 1.4 SW 17 20 9 11 1023.9 1023.9 0.0
20/07:30am 11.8 8.1 9.4 85 1.2 SW 19 26 10 14 1023.6 1023.6 0.0
20/07:00am 11.6 7.8 9.2 85 1.2 SW 19 24 10 13 1023.5 1023.5 0.0
20/06:30am 11.3 7.3 8.9 85 1.2 SW 20 26 11 14 1023.1 1023.1 0.0
20/06:00am 11.4 6.6 9.0 85 1.2 SSW 24 30 13 16 1022.7 1022.7 0.0
20/05:30am 11.5 6.8 9.1 85 1.2 SSW 24 32 13 17 1022.2 1022.2 0.0
20/05:00am 11.6 6.1 9.2 85 1.2 SSW 28 32 15 17 1021.8 1021.8 0.0
20/04:30am 11.7 5.4 9.1 84 1.3 SSW 32 37 17 20 1021.4 1021.4 0.0
20/04:00am 11.5 7.1 8.9 84 1.3 SW 22 30 12 16 1020.9 1020.9 0.0
20/03:30am 11.5 5.9 8.9 84 1.3 SSW 28 33 15 18 1020.6 1020.6 0.0
20/03:00am 11.6 5.3 9.0 84 1.3 SW 32 39 17 21 1020.4 1020.4 0.0
20/02:30am 11.6 4.7 9.0 84 1.3 SW 35 43 19 23 1020.3 1020.3 0.0
20/02:00am 11.7 4.9 9.1 84 1.3 SW 35 44 19 24 1020.3 1020.3 0.0
20/01:30am 11.7 5.2 9.1 84 1.3 SW 33 44 18 24 1020.4 1020.4 0.0
20/01:00am 11.7 4.8 8.9 83 1.4 SW 35 46 19 25 1020.5 1020.5 0.0
20/12:30am 11.7 4.8 8.9 83 1.4 SW 35 46 19 25 1020.4 1020.4 0.0
20/12:00am 11.7 3.3 8.9 83 1.4 WSW 43 54 23 29 1020.1 1020.1 0.0
 
Date/Time
EST
Temp
°C
App
Temp
°C
Dew
Point
Rel
Hum
%
Delta-T
°C
Wind Press
QNH
hPa
Press
MSL
hPa
Rain
since 9 am
mm
Dir
 
Spd
km/h
Gust
km/h
Spd
kts
Gust
kts
19/11:30pm 11.6 3.6 9.0 84 1.3 WSW 41 50 22 27 1019.9 1019.9 0.0
19/11:00pm 11.8 3.3 9.2 84 1.3 WSW 44 56 24 30 1019.8 1019.8 0.0
19/10:30pm 11.9 3.4 9.1 83 1.4 WSW 44 56 24 30 1020.1 1020.1 0.0
19/10:00pm 12.0 4.1 9.2 83 1.4 WSW 41 52 22 28 1020.0 1020.0 0.0
19/09:30pm 12.1 3.8 9.3 83 1.4 WSW 43 52 23 28 1019.9 1019.9 0.0
19/09:00pm 12.3 4.8 9.5 83 1.4 WSW 39 48 21 26 1019.8 1019.8 0.0
19/08:30pm 12.4 5.3 9.4 82 1.5 W 37 48 20 26 1019.7 1019.7 0.0
19/08:00pm 12.5 5.3 9.3 81 1.6 W 37 46 20 25 1019.6 1019.6 0.0
19/07:30pm 12.4 5.2 9.2 81 1.6 W 37 46 20 25 1019.3 1019.3 0.0
19/07:00pm 12.5 5.0 9.3 81 1.6 W 39 48 21 26 1019.1 1019.1 0.0
19/06:30pm 12.5 4.0 9.1 80 1.7 W 44 52 24 28 1018.7 1018.7 0.0
19/06:00pm 12.6 4.2 8.9 78 1.8 W 43 52 23 28 1018.8 1018.8 0.0
19/05:30pm 12.7 4.3 8.8 77 2.0 W 43 56 23 30 1018.5 1018.5 0.0
19/05:00pm 12.9 5.6 8.6 75 2.1 W 37 50 20 27 1018.5 1018.5 0.0
19/04:30pm 12.9 4.8 8.8 76 2.1 W 41 54 22 29 1018.3 1018.3 0.0
19/04:00pm 13.1 5.9 9.0 76 2.1 W 37 48 20 26 1018.2 1018.2 0.0
19/03:30pm 13.0 4.0 8.7 75 2.2 W 46 56 25 30 1017.7 1017.8 0.0
19/03:00pm 13.3 5.2 8.6 73 2.3 W 41 54 22 29 1018.0 1018.0 0.0
19/02:30pm 14.1 5.6 9.1 72 2.5 W 44 54 24 29 1017.7 1017.8 0.0
19/02:00pm 13.9 4.2 8.9 72 2.5 W 50 57 27 31 1017.7 1017.8 0.0
19/01:30pm 14.3 5.8 9.3 72 2.6 W 44 57 24 31 1018.0 1018.0 0.0
19/01:00pm 14.2 7.0 9.2 72 2.5 W 37 44 20 24 1018.1 1018.1 0.0
19/12:30pm 14.0 7.2 9.4 74 2.4 WSW 35 46 19 25 1018.2 1018.2 0.0
19/12:00pm 13.8 6.3 9.3 74 2.3 WSW 39 50 21 27 1018.5 1018.5 0.0
19/11:30am 13.2 5.6 8.9 75 2.2 WSW 39 50 21 27 1018.4 1018.4 0.0
19/11:00am 13.1 6.2 8.8 75 2.2 WSW 35 46 19 25 1018.5 1018.5 0.0
19/10:30am 12.9 4.4 8.4 74 2.2 WSW 43 54 23 29 1018.7 1018.7 0.0
19/10:00am 12.6 4.7 7.9 73 2.3 WSW 39 48 21 26 1018.7 1018.7 0.0
19/09:30am 12.5 4.2 7.6 72 2.4 WSW 41 52 22 28 1018.7 1018.7 0.0
19/09:00am 12.2 4.2 7.5 73 2.3 WSW 39 50 21 27 1018.7 1018.7 0.0
19/08:30am 12.0 3.6 7.5 74 2.2 WSW 41 54 22 29 1018.4 1018.4 0.0
19/08:00am 12.0 3.7 7.7 75 2.1 WSW 41 52 22 28 1018.4 1018.4 0.0
19/07:30am 12.0 3.2 7.9 76 2.0 WSW 44 57 24 31 1018.0 1018.0 0.0
19/07:00am 11.8 2.5 7.7 76 2.0 WSW 46 59 25 32 1018.0 1018.0 0.0
19/06:30am 11.7 2.5 8.0 78 1.8 WSW 46 56 25 30 1017.7 1017.8 0.0
19/06:00am 11.5 2.2 7.6 77 1.9 WSW 46 57 25 31 1017.3 1017.4 0.0
19/05:30am 11.6 2.7 7.7 77 1.9 WSW 44 52 24 28 1017.4 1017.5 0.0
19/05:00am 11.7 3.4 7.8 77 1.9 WSW 41 54 22 29 1017.4 1017.5 0.0
19/04:30am 11.5 3.1 7.4 76 2.0 WSW 41 54 22 29 1017.3 1017.4 0.0
19/04:00am 11.3 2.6 7.6 78 1.8 WSW 43 52 23 28 1017.3 1017.4 0.0
19/03:47am 11.1 2.3 7.4 78 1.8 WSW 43 50 23 27 1017.1 1017.2 0.0
19/03:30am 11.0 3.0 7.5 79 1.7 WSW 39 50 21 27 1017.2 1017.3 0.0
19/03:15am 11.0 3.0 7.3 78 1.8 W 39 50 21 27 1017.3 1017.4 0.0
19/03:00am 11.0 2.5 6.9 76 1.9 WSW 41 50 22 27 1017.2 1017.3 0.0
19/02:30am 11.0 1.5 6.7 75 2.0 WSW 46 54 25 29 1017.2 1017.3 0.0
19/02:00am 11.0 1.1 6.4 73 2.2 WSW 48 56 26 30 1017.4 1017.5 0.0
19/01:30am 11.1 2.1 6.6 74 2.1 WSW 43 54 23 29 1017.7 1017.8 0.0
19/01:00am 11.0 1.5 6.6 74 2.1 WSW 46 56 25 30 1017.7 1017.8 0.0
19/12:30am 11.2 1.4 6.9 75 2.0 WSW 48 57 26 31 1017.7 1017.8 0.0
19/12:00am 11.2 1.7 6.9 75 2.0 W 46 56 25 30 1017.7 1017.8 0.0
 
Date/Time
EST
Temp
°C
App
Temp
°C
Dew
Point
Rel
Hum
%
Delta-T
°C
Wind Press
QNH
hPa
Press
MSL
hPa
Rain
since 9 am
mm
Dir
 
Spd
km/h
Gust
km/h
Spd
kts
Gust
kts
18/11:30pm 11.3 1.4 6.8 74 2.1 WSW 48 59 26 32 1018.0 1018.0 0.0
18/11:00pm 11.5 1.3 6.8 73 2.2 WSW 50 61 27 33 1018.0 1018.0 0.0
18/10:30pm 11.5 1.2 6.4 71 2.4 WSW 50 65 27 35 1018.2 1018.2 0.0
18/10:00pm 11.7 0.9 6.2 69 2.6 WSW 52 63 28 34 1018.3 1018.3 0.0
18/09:30pm 11.7 1.7 6.2 69 2.6 WSW 48 59 26 32 1018.5 1018.5 0.0
18/09:00pm 11.9 2.7 6.2 68 2.7 WSW 44 59 24 32 1018.4 1018.4 0.0
18/08:30pm 11.8 1.7 5.9 67 2.8 WSW 48 59 26 32 1018.1 1018.1 0.0
18/08:00pm 11.9 2.2 5.8 66 2.8 WSW 46 59 25 32 1017.8 1017.9 0.0

Other Formats:

Comma delimited format used in spreadsheet applications
http://www.bom.gov.au/fwo/IDT60801/IDT60801.94980.axf

JavaScript Object Notation format (JSON) in row-major order
http://www.bom.gov.au/fwo/IDT60801/IDT60801.94980.json